Time;durP1;ratioP1;P1;durP2;ratioP2;P2;SDS_P1;SDS_P2;PMS_P1;PMS_P2;Temp;Humidity;BMP_temperature;BMP_pressure;BME280_temperature;BME280_humidity;BME280_pressure;Samples;Min_cycle;Max_cycle;Signal;HPM_P1;HPM_P2
2021/05/30 00:01:02;;;;;;;4.17;3.80;;;12.10;1.00;;;;;;5127521;28;20471;-67
2021/05/30 00:03:28;;;;;;;6.50;4.17;;;12.00;1.00;;;;;;5128123;28;20463;-68
2021/05/30 00:05:55;;;;;;;5.63;4.30;;;12.00;1.00;;;;;;5128443;28;20476;-68
2021/05/30 00:08:22;;;;;;;5.30;4.30;;;12.00;1.00;;;;;;5128022;28;20460;-68
2021/05/30 00:10:48;;;;;;;4.40;3.97;;;12.00;1.00;;;;;;5128542;28;20453;-67
2021/05/30 00:13:15;;;;;;;4.93;4.03;;;11.90;1.00;;;;;;5129045;28;20826;-69
2021/05/30 00:15:41;;;;;;;5.33;4.83;;;11.90;1.00;;;;;;5128839;28;20459;-67
2021/05/30 00:18:07;;;;;;;5.60;3.80;;;11.90;1.00;;;;;;5128012;28;20452;-68
2021/05/30 00:20:33;;;;;;;7.10;4.90;;;11.90;1.00;;;;;;5128760;28;20448;-68
2021/05/30 00:23:00;;;;;;;6.33;4.37;;;11.80;1.00;;;;;;5127864;28;20456;-68
2021/05/30 00:25:27;;;;;;;6.20;4.30;;;11.80;1.00;;;;;;5126925;28;20483;-68
2021/05/30 00:27:53;;;;;;;5.80;4.43;;;11.80;40.40;;;;;;5126712;28;20487;-68
2021/05/30 00:30:20;;;;;;;5.90;4.30;;;11.70;80.70;;;;;;5126650;28;20766;-68
2021/05/30 00:32:47;;;;;;;5.83;4.20;;;11.70;99.90;;;;;;5125522;28;20477;-68
2021/05/30 00:35:14;;;;;;;5.07;4.47;;;11.70;99.90;;;;;;5127443;27;20448;-66
2021/05/30 00:37:40;;;;;;;6.03;4.33;;;11.70;99.90;;;;;;5128024;27;20448;-67
2021/05/30 00:40:08;;;;;;;5.50;4.87;;;11.60;1.00;;;;;;5128031;28;20452;-69
2021/05/30 00:42:35;;;;;;;4.77;3.90;;;11.60;1.00;;;;;;5127668;28;20456;-67
2021/05/30 00:45:01;;;;;;;4.30;3.90;;;11.60;1.00;;;;;;5125535;28;20483;-67
2021/05/30 00:47:27;;;;;;;4.53;4.00;;;11.50;1.00;;;;;;5126607;28;20467;-68
2021/05/30 00:49:56;;;;;;;5.67;4.50;;;11.50;1.00;;;;;;5126590;28;20554;-67
2021/05/30 00:52:22;;;;;;;5.17;4.03;;;11.40;1.00;;;;;;5126926;28;20513;-67
2021/05/30 00:54:49;;;;;;;4.60;4.17;;;11.40;6.00;;;;;;5126832;28;20463;-67
2021/05/30 00:57:16;;;;;;;7.03;4.50;;;11.30;99.90;;;;;;5128428;28;20527;-67
2021/05/30 00:59:42;;;;;;;5.03;4.30;;;11.30;99.90;;;;;;5125974;28;20931;-67
2021/05/30 01:02:08;;;;;;;4.97;4.47;;;11.20;99.90;;;;;;5125649;28;20467;-67
2021/05/30 01:04:35;;;;;;;5.80;4.03;;;11.20;1.00;;;;;;5125882;28;20476;-67
2021/05/30 01:07:01;;;;;;;4.97;4.33;;;11.20;1.00;;;;;;5126285;28;20452;-67
2021/05/30 01:09:28;;;;;;;5.67;4.30;;;11.10;1.00;;;;;;5124193;28;20480;-67
2021/05/30 01:11:55;;;;;;;5.77;4.80;;;11.10;1.00;;;;;;5123037;28;20479;-67
2021/05/30 01:14:22;;;;;;;6.03;4.30;;;11.10;1.00;;;;;;5122088;28;20456;-67
2021/05/30 01:16:49;;;;;;;6.10;4.57;;;11.00;1.00;;;;;;5123885;28;20544;-67
2021/05/30 01:19:17;;;;;;;6.67;4.70;;;11.00;1.00;;;;;;5124953;28;20947;-67
2021/05/30 01:21:44;;;;;;;4.80;4.27;;;11.00;1.00;;;;;;5121842;28;20463;-67
2021/05/30 01:24:11;;;;;;;7.10;5.07;;;11.00;13.70;;;;;;5120392;28;20460;-67
2021/05/30 01:26:38;;;;;;;6.03;4.67;;;10.90;1.00;;;;;;5120865;28;20467;-67
2021/05/30 01:29:05;;;;;;;5.90;4.50;;;10.90;1.00;;;;;;5121777;28;20452;-67
2021/05/30 01:31:31;;;;;;;5.70;4.23;;;10.80;64.80;;;;;;5120761;28;20794;-67
2021/05/30 01:33:59;;;;;;;6.63;4.50;;;10.80;99.90;;;;;;5121071;28;20437;-67
2021/05/30 01:36:26;;;;;;;6.33;4.67;;;10.80;99.90;;;;;;5121202;28;20448;-67
2021/05/30 01:38:52;;;;;;;6.03;4.40;;;10.70;1.00;;;;;;5121522;28;20881;-67
2021/05/30 01:41:19;;;;;;;5.33;4.30;;;10.70;1.00;;;;;;5121421;28;20943;-67
2021/05/30 01:43:45;;;;;;;6.63;5.60;;;10.70;1.00;;;;;;5120810;28;20456;-67
2021/05/30 01:46:12;;;;;;;6.10;4.90;;;10.60;1.00;;;;;;5120780;28;20484;-67
2021/05/30 01:48:38;;;;;;;5.17;4.67;;;10.60;1.00;;;;;;5120966;28;20468;-68
2021/05/30 01:51:05;;;;;;;6.67;4.53;;;10.60;1.00;;;;;;5122030;28;20463;-67
2021/05/30 01:53:36;;;;;;;5.00;4.53;;;10.60;1.00;;;;;;5120737;28;20554;-67
2021/05/30 01:58:48;;;;;;;5.37;4.87;;;10.50;1.00;;;;;;5119976;28;20904;-67
2021/05/30 02:01:15;;;;;;;7.20;4.67;;;10.50;1.00;;;;;;5120933;28;20456;-67
2021/05/30 02:03:44;;;;;;;4.83;4.43;;;10.50;1.00;;;;;;5121258;28;20783;-66
2021/05/30 02:06:17;;;;;;;6.57;4.53;;;10.50;1.00;;;;;;5120552;27;20480;-67
2021/05/30 02:08:47;;;;;;;7.30;5.03;;;10.50;1.00;;;;;;5120792;28;20456;-67
2021/05/30 02:11:13;;;;;;;6.47;4.97;;;10.50;1.00;;;;;;5120528;28;20452;-66
2021/05/30 02:13:41;;;;;;;5.30;4.40;;;10.40;1.00;;;;;;5120469;28;20550;-66
2021/05/30 02:16:08;;;;;;;6.50;4.07;;;10.40;99.90;;;;;;5121443;28;20464;-67
2021/05/30 02:18:35;;;;;;;4.77;4.23;;;10.40;99.90;;;;;;5119796;28;20453;-69
2021/05/30 02:21:01;;;;;;;6.60;4.80;;;10.40;99.90;;;;;;5121768;28;20494;-68
2021/05/30 02:23:27;;;;;;;6.80;4.33;;;10.40;81.70;;;;;;5122452;28;20470;-68
2021/05/30 02:25:53;;;;;;;6.53;5.33;;;10.40;1.00;;;;;;5123701;28;20487;-68
2021/05/30 02:28:20;;;;;;;6.53;4.20;;;10.40;1.00;;;;;;5122324;28;20452;-68
2021/05/30 02:30:46;;;;;;;5.07;4.37;;;10.40;1.00;;;;;;5121439;28;20460;-67
2021/05/30 02:33:13;;;;;;;5.80;4.50;;;10.30;1.00;;;;;;5122432;28;20480;-67
2021/05/30 02:35:39;;;;;;;4.27;3.90;;;10.30;1.00;;;;;;5122341;28;20505;-67
2021/05/30 02:38:06;;;;;;;6.23;4.70;;;10.30;1.00;;;;;;5121011;28;20453;-67
2021/05/30 02:40:32;;;;;;;5.40;4.00;;;10.20;1.00;;;;;;5121149;28;20467;-67
2021/05/30 02:42:59;;;;;;;5.00;4.23;;;10.20;1.00;;;;;;5122328;28;20453;-67
2021/05/30 02:45:25;;;;;;;5.10;4.60;;;10.20;1.00;;;;;;5127290;28;20476;-69
2021/05/30 02:47:51;;;;;;;4.60;4.20;;;10.20;1.00;;;;;;5123733;28;20466;-67
2021/05/30 02:50:19;;;;;;;6.80;4.40;;;10.10;1.00;;;;;;5123263;28;20463;-67
2021/05/30 02:52:45;;;;;;;5.70;5.07;;;10.10;1.00;;;;;;5124866;28;20456;-66
2021/05/30 02:55:12;;;;;;;5.10;4.60;;;10.10;1.00;;;;;;5126858;28;20508;-67
2021/05/30 02:57:38;;;;;;;5.97;4.40;;;10.10;1.00;;;;;;5128374;28;20779;-67
2021/05/30 03:00:07;;;;;;;6.10;4.37;;;10.10;1.00;;;;;;5128928;28;20452;-67
2021/05/30 03:02:33;;;;;;;5.90;4.30;;;10.10;1.00;;;;;;5129710;28;20457;-68
2021/05/30 03:04:59;;;;;;;6.67;4.97;;;10.10;1.00;;;;;;5129521;28;20811;-67
2021/05/30 03:07:28;;;;;;;5.13;4.63;;;10.10;1.00;;;;;;5132123;28;20452;-67
2021/05/30 03:09:54;;;;;;;4.90;4.40;;;10.10;1.00;;;;;;5128100;28;20458;-67
2021/05/30 03:12:21;;;;;;;6.17;4.67;;;10.10;99.90;;;;;;5128137;28;20456;-67
2021/05/30 03:14:47;;;;;;;6.70;4.00;;;10.00;99.90;;;;;;5126507;28;20533;-68
2021/05/30 03:17:13;;;;;;;6.47;4.83;;;10.10;99.90;;;;;;5126149;28;20448;-68
2021/05/30 03:19:39;;;;;;;6.57;4.60;;;10.00;99.90;;;;;;5126932;28;20463;-68
2021/05/30 03:22:06;;;;;;;5.80;4.87;;;10.00;99.90;;;;;;5129018;28;20452;-68
2021/05/30 03:24:33;;;;;;;4.80;4.27;;;10.00;99.90;;;;;;5128510;28;20452;-68
2021/05/30 03:26:59;;;;;;;7.90;4.70;;;10.00;99.90;;;;;;5128428;28;20930;-67
2021/05/30 03:29:25;;;;;;;4.97;4.40;;;10.00;5.30;;;;;;5128682;28;20448;-68
2021/05/30 03:31:54;;;;;;;5.70;4.70;;;10.00;1.20;;;;;;5131012;28;20471;-68
2021/05/30 03:34:20;;;;;;;6.13;4.67;;;10.00;1.00;;;;;;5132139;28;20433;-67
2021/05/30 03:36:50;;;;;;;6.10;4.07;;;10.00;1.00;;;;;;5131974;28;20448;-67
2021/05/30 03:39:16;;;;;;;5.97;4.30;;;10.10;1.00;;;;;;5128697;28;20452;-68
2021/05/30 03:41:44;;;;;;;6.27;4.63;;;10.10;1.00;;;;;;5131918;28;20479;-68
2021/05/30 03:44:10;;;;;;;6.40;4.40;;;10.10;1.00;;;;;;5132009;27;20858;-68
2021/05/30 03:46:37;;;;;;;5.93;4.50;;;10.10;1.00;;;;;;5128684;28;20480;-68
2021/05/30 03:49:06;;;;;;;4.63;4.00;;;10.10;1.00;;;;;;5128159;28;20980;-68
2021/05/30 03:51:33;;;;;;;4.10;3.70;;;10.10;99.90;;;;;;5128224;28;20459;-68
2021/05/30 03:54:01;;;;;;;6.50;4.63;;;10.20;99.90;;;;;;5128998;28;20445;-68
2021/05/30 03:56:28;;;;;;;3.47;3.20;;;10.20;99.90;;;;;;5132368;28;20474;-68
2021/05/30 03:58:57;;;;;;;4.63;4.00;;;10.30;99.90;;;;;;5115602;28;20457;-68
2021/05/30 04:01:23;;;;;;;4.33;3.70;;;10.30;99.90;;;;;;5107909;28;20921;-68
2021/05/30 04:03:53;;;;;;;4.90;3.50;;;10.40;99.90;;;;;;5107164;28;20517;-68
2021/05/30 04:06:19;;;;;;;5.53;3.93;;;10.40;43.00;;;;;;5108160;28;20949;-68
2021/05/30 04:08:47;;;;;;;3.63;3.13;;;10.50;1.00;;;;;;5111033;28;20457;-68
2021/05/30 04:11:13;;;;;;;4.80;3.77;;;10.50;1.00;;;;;;5128149;28;20487;-68
2021/05/30 04:13:39;;;;;;;4.33;3.30;;;10.50;1.00;;;;;;5128889;28;20791;-68
2021/05/30 04:16:07;;;;;;;4.87;3.53;;;10.60;1.00;;;;;;5129718;28;20448;-68
2021/05/30 04:18:33;;;;;;;3.30;3.00;;;10.60;1.00;;;;;;5129832;28;20461;-68
2021/05/30 04:20:59;;;;;;;3.80;3.50;;;10.70;1.00;;;;;;5129594;28;20449;-68
2021/05/30 04:23:26;;;;;;;5.13;3.33;;;10.70;1.00;;;;;;5130167;28;20562;-68
2021/05/30 04:25:52;;;;;;;3.57;3.27;;;10.80;1.00;;;;;;5128107;28;20469;-68
2021/05/30 04:28:19;;;;;;;6.30;3.50;;;10.80;1.00;;;;;;5129512;28;20459;-68
2021/05/30 04:30:45;;;;;;;3.77;3.10;;;10.90;1.00;;;;;;5130741;28;20448;-68
2021/05/30 04:33:12;;;;;;;8.07;3.10;;;11.00;1.00;;;;;;5130727;28;20476;-68
2021/05/30 04:35:38;;;;;;;4.00;3.60;;;11.00;1.00;;;;;;5131285;28;20464;-68
2021/05/30 04:38:05;;;;;;;3.70;3.40;;;11.10;1.00;;;;;;5131942;28;20460;-68
2021/05/30 04:40:31;;;;;;;3.03;2.73;;;11.20;1.00;;;;;;5130990;27;20453;-68
2021/05/30 04:42:57;;;;;;;5.43;3.70;;;11.20;1.00;;;;;;5131180;28;20466;-69
2021/05/30 04:45:24;;;;;;;3.67;3.30;;;11.30;1.00;;;;;;5130321;27;20506;-68
2021/05/30 04:47:50;;;;;;;4.00;3.30;;;11.40;1.00;;;;;;5130894;28;20905;-68
2021/05/30 04:50:18;;;;;;;4.07;3.13;;;11.40;1.00;;;;;;5130152;28;20461;-67
2021/05/30 04:52:45;;;;;;;10.97;3.03;;;11.50;1.00;;;;;;5129748;28;20459;-67
2021/05/30 04:55:11;;;;;;;3.83;2.97;;;11.50;99.90;;;;;;5130082;28;20908;-68
2021/05/30 04:57:38;;;;;;;3.70;2.70;;;11.60;99.90;;;;;;5130029;28;20459;-68
2021/05/30 05:00:08;;;;;;;3.43;3.10;;;11.60;99.90;;;;;;5129279;28;20449;-68
2021/05/30 05:02:35;;;;;;;3.80;2.37;;;11.70;99.90;;;;;;5128397;28;20779;-68
2021/05/30 05:05:02;;;;;;;4.70;3.30;;;11.80;99.90;;;;;;5126198;28;20844;-68
2021/05/30 05:07:29;;;;;;;4.03;2.63;;;11.80;99.90;;;;;;5127364;28;20917;-68
2021/05/30 05:09:55;;;;;;;3.37;3.07;;;11.90;99.90;;;;;;5127040;28;20489;-68
2021/05/30 05:12:24;;;;;;;4.60;3.30;;;12.00;99.90;;;;;;5127363;27;20437;-68
2021/05/30 05:14:50;;;;;;;4.70;3.40;;;12.00;99.90;;;;;;5128165;28;20452;-68
2021/05/30 05:17:17;;;;;;;4.13;2.67;;;12.00;99.90;;;;;;5126650;28;20935;-68
2021/05/30 05:19:43;;;;;;;3.73;2.77;;;12.10;99.90;;;;;;5127936;28;20467;-68
2021/05/30 05:22:09;;;;;;;2.90;2.60;;;12.20;99.90;;;;;;5128076;28;20452;-68
2021/05/30 05:24:36;;;;;;;4.97;3.30;;;12.20;99.90;;;;;;5127144;28;20455;-68
2021/05/30 05:27:03;;;;;;;5.30;3.17;;;12.20;99.90;;;;;;5125222;28;20449;-68
2021/05/30 05:29:30;;;;;;;3.20;2.90;;;12.20;99.90;;;;;;5121978;28;20463;-67
2021/05/30 05:31:56;;;;;;;2.90;2.60;;;12.30;99.90;;;;;;5115867;28;20491;-67
2021/05/30 05:34:24;;;;;;;3.23;2.73;;;12.30;99.90;;;;;;5115792;28;20775;-67
2021/05/30 05:36:50;;;;;;;3.70;2.80;;;12.40;99.90;;;;;;5116020;28;20452;-68
2021/05/30 05:39:16;;;;;;;4.00;2.80;;;12.40;99.90;;;;;;5115419;27;20504;-67
2021/05/30 05:41:44;;;;;;;2.70;2.50;;;12.50;99.90;;;;;;5115691;28;20456;-67
2021/05/30 05:44:10;;;;;;;3.00;2.53;;;12.60;99.90;;;;;;5115730;28;20456;-67
2021/05/30 05:46:36;;;;;;;2.90;2.60;;;12.60;99.90;;;;;;5115553;28;20484;-67
2021/05/30 05:49:03;;;;;;;4.10;2.50;;;12.70;99.90;;;;;;5115272;28;20463;-67
2021/05/30 05:51:29;;;;;;;2.23;2.03;;;12.70;99.90;;;;;;5115564;27;20483;-67
2021/05/30 05:53:55;;;;;;;2.83;2.57;;;12.80;99.90;;;;;;5115304;28;20955;-66
2021/05/30 05:56:21;;;;;;;2.53;2.13;;;12.80;99.90;;;;;;5115296;28;20461;-66
2021/05/30 05:58:48;;;;;;;2.47;2.17;;;12.90;99.90;;;;;;5116014;28;20448;-66
2021/05/30 06:01:14;;;;;;;2.10;1.90;;;12.90;99.90;;;;;;5116455;28;20797;-66
2021/05/30 06:03:41;;;;;;;2.60;2.40;;;13.00;99.90;;;;;;5115637;28;20453;-66
2021/05/30 06:06:07;;;;;;;2.97;2.53;;;13.10;99.90;;;;;;5116208;28;20487;-66
2021/05/30 06:08:33;;;;;;;3.40;2.40;;;13.10;99.90;;;;;;5115960;28;20456;-67
2021/05/30 06:10:59;;;;;;;4.70;2.60;;;13.20;99.90;;;;;;5115913;28;20456;-66
2021/05/30 06:13:26;;;;;;;2.60;2.40;;;13.20;99.90;;;;;;5116233;28;20460;-67
2021/05/30 06:15:53;;;;;;;2.90;1.93;;;13.30;99.90;;;;;;5116914;28;20448;-68
2021/05/30 06:18:22;;;;;;;3.43;2.27;;;13.40;99.90;;;;;;5116850;28;20585;-67
2021/05/30 06:20:49;;;;;;;4.37;2.30;;;13.40;97.20;;;;;;5116277;28;20484;-67
2021/05/30 06:23:16;;;;;;;2.63;1.80;;;13.50;91.60;;;;;;5115988;28;20452;-67
2021/05/30 06:25:43;;;;;;;3.20;2.23;;;13.50;70.10;;;;;;5116273;28;20476;-67
2021/05/30 06:28:12;;;;;;;3.63;2.47;;;13.60;56.60;;;;;;5116314;28;20456;-67
2021/05/30 06:30:40;;;;;;;2.63;1.73;;;13.70;37.50;;;;;;5116058;28;20459;-67
2021/05/30 06:33:09;;;;;;;3.43;1.77;;;13.70;27.90;;;;;;5115920;28;20487;-67
2021/05/30 06:35:36;;;;;;;2.53;2.10;;;13.80;13.00;;;;;;5115632;28;20455;-67
2021/05/30 06:38:06;;;;;;;2.90;2.30;;;13.80;6.20;;;;;;5116447;28;20436;-67
2021/05/30 06:40:33;;;;;;;2.23;2.03;;;13.90;1.90;;;;;;5116522;28;20456;-66
2021/05/30 06:42:59;;;;;;;3.03;2.47;;;14.00;1.00;;;;;;5116115;28;20827;-66
2021/05/30 06:45:25;;;;;;;4.47;2.13;;;14.10;1.00;;;;;;5115444;28;20495;-66
2021/05/30 06:47:53;;;;;;;5.33;2.30;;;14.20;1.00;;;;;;5115781;28;20456;-66
2021/05/30 06:50:21;;;;;;;2.77;1.90;;;14.20;1.00;;;;;;5115745;28;20546;-67
2021/05/30 06:52:50;;;;;;;6.07;1.80;;;14.30;1.00;;;;;;5115825;28;20510;-67
2021/05/30 06:55:19;;;;;;;2.50;2.30;;;14.30;1.00;;;;;;5115528;28;20453;-68
2021/05/30 06:57:45;;;;;;;2.27;2.00;;;14.40;1.00;;;;;;5114915;28;20448;-67
2021/05/30 07:00:13;;;;;;;2.70;1.77;;;14.40;1.00;;;;;;5115738;28;20456;-66
2021/05/30 07:02:40;;;;;;;2.83;1.83;;;14.50;1.00;;;;;;5114961;28;20464;-67
2021/05/30 07:05:07;;;;;;;5.80;2.10;;;14.60;1.00;;;;;;5117120;28;20476;-67
2021/05/30 07:07:34;;;;;;;4.87;2.10;;;14.60;1.00;;;;;;5119418;28;20459;-67
2021/05/30 07:10:00;;;;;;;3.30;1.87;;;14.70;1.00;;;;;;5119528;28;20474;-67
2021/05/30 07:12:26;;;;;;;2.63;2.10;;;14.80;1.00;;;;;;5119567;28;20780;-66
2021/05/30 07:14:53;;;;;;;2.90;2.13;;;14.90;1.00;;;;;;5119056;28;20482;-66
2021/05/30 07:17:19;;;;;;;3.87;1.73;;;14.90;1.00;;;;;;5119185;28;20499;-67
2021/05/30 07:19:50;;;;;;;2.80;2.33;;;15.00;1.00;;;;;;5119078;27;20481;-65
2021/05/30 07:22:18;;;;;;;3.90;2.57;;;15.10;1.00;;;;;;5118942;28;20505;-67
2021/05/30 07:24:45;;;;;;;3.80;2.00;;;15.20;1.00;;;;;;5118858;28;20945;-66
2021/05/30 07:27:13;;;;;;;2.23;1.90;;;15.30;1.00;;;;;;5119237;28;20448;-66
2021/05/30 07:29:39;;;;;;;2.83;1.93;;;15.30;1.00;;;;;;5119262;28;20466;-66
2021/05/30 07:32:05;;;;;;;2.80;2.50;;;15.30;1.00;;;;;;5119760;28;20964;-66
2021/05/30 07:34:32;;;;;;;4.03;2.40;;;15.30;1.00;;;;;;5125287;28;20459;-65
2021/05/30 07:36:58;;;;;;;2.63;1.90;;;15.40;1.00;;;;;;5125364;28;20448;-67
2021/05/30 07:39:24;;;;;;;3.13;1.93;;;15.40;1.00;;;;;;5125243;27;20459;-68
2021/05/30 07:41:51;;;;;;;2.40;2.20;;;15.50;1.00;;;;;;5123975;28;20452;-68
2021/05/30 07:44:20;;;;;;;5.83;2.27;;;15.60;1.00;;;;;;5124352;28;20455;-68
2021/05/30 07:46:46;;;;;;;2.33;2.00;;;15.60;1.00;;;;;;5123745;27;20806;-68
2021/05/30 07:49:12;;;;;;;4.70;2.20;;;15.60;1.00;;;;;;5123409;28;20467;-68
2021/05/30 07:51:39;;;;;;;5.00;2.00;;;15.60;1.00;;;;;;5123012;28;20494;-68
2021/05/30 07:54:05;;;;;;;1.73;1.60;;;15.70;1.00;;;;;;5129366;28;20481;-68
2021/05/30 07:56:31;;;;;;;1.93;1.83;;;15.80;1.00;;;;;;5124910;28;20452;-69
2021/05/30 07:58:58;;;;;;;3.73;2.20;;;15.80;1.00;;;;;;5125136;28;20467;-67
2021/05/30 08:01:24;;;;;;;5.43;1.87;;;15.90;1.00;;;;;;5124493;28;20453;-68
2021/05/30 08:03:51;;;;;;;5.10;1.93;;;15.90;1.00;;;;;;5123723;28;20812;-68
2021/05/30 08:06:18;;;;;;;4.50;1.70;;;16.00;1.00;;;;;;5123216;28;20472;-68
2021/05/30 08:08:44;;;;;;;2.13;1.63;;;16.10;1.00;;;;;;5122252;27;20551;-69
2021/05/30 08:11:10;;;;;;;2.13;1.90;;;16.10;1.00;;;;;;5120679;28;20479;-68
2021/05/30 08:13:38;;;;;;;4.47;2.30;;;16.20;1.00;;;;;;5120970;28;20492;-68
2021/05/30 08:16:05;;;;;;;1.97;1.53;;;16.20;1.00;;;;;;5119525;28;20778;-68
2021/05/30 08:18:31;;;;;;;2.03;1.80;;;16.30;1.00;;;;;;5120002;28;20463;-69
2021/05/30 08:20:58;;;;;;;2.27;1.90;;;16.30;1.00;;;;;;5120334;28;20832;-69
2021/05/30 08:23:24;;;;;;;3.33;1.90;;;16.30;1.00;;;;;;5120147;28;20456;-69
2021/05/30 08:25:52;;;;;;;3.30;2.60;;;16.40;1.00;;;;;;5120374;28;20611;-68
2021/05/30 08:28:19;;;;;;;4.37;2.27;;;16.50;1.00;;;;;;5120575;28;20468;-68
2021/05/30 08:30:45;;;;;;;2.10;1.90;;;16.60;1.00;;;;;;5120774;28;20521;-68
2021/05/30 08:33:12;;;;;;;2.10;1.80;;;16.60;1.00;;;;;;5120283;28;20491;-69
2021/05/30 08:35:38;;;;;;;1.73;1.50;;;16.70;1.00;;;;;;5120390;27;20448;-68
2021/05/30 08:38:06;;;;;;;4.43;1.73;;;16.80;1.00;;;;;;5120234;28;20463;-69
2021/05/30 08:40:34;;;;;;;3.43;1.87;;;16.90;1.00;;;;;;5120125;28;20513;-69
2021/05/30 08:43:00;;;;;;;4.60;2.53;;;17.00;1.00;;;;;;5119752;28;20525;-69
2021/05/30 08:45:27;;;;;;;8.40;2.43;;;17.00;1.00;;;;;;5120252;28;20541;-69
2021/05/30 08:47:54;;;;;;;3.67;2.43;;;17.10;1.00;;;;;;5119739;28;20529;-69
2021/05/30 08:50:21;;;;;;;1.90;1.70;;;17.10;1.00;;;;;;5120088;28;20456;-68
2021/05/30 08:52:47;;;;;;;3.07;2.00;;;17.10;1.00;;;;;;5119667;28;20823;-69
2021/05/30 08:55:14;;;;;;;4.67;1.73;;;17.10;1.00;;;;;;5119548;28;20456;-68
2021/05/30 08:57:40;;;;;;;1.70;1.60;;;17.10;1.00;;;;;;5119311;27;20452;-68
2021/05/30 09:00:09;;;;;;;1.90;1.60;;;17.10;1.00;;;;;;5119746;28;20797;-68
2021/05/30 09:02:36;;;;;;;2.90;1.63;;;17.20;1.00;;;;;;5120057;28;20970;-68
2021/05/30 09:05:04;;;;;;;3.20;1.60;;;17.30;1.00;;;;;;5120537;28;20452;-69
2021/05/30 09:07:39;;;;;;;1.90;1.70;;;17.40;1.00;;;;;;5119682;28;20513;-68
2021/05/30 09:10:08;;;;;;;2.77;2.17;;;17.50;1.00;;;;;;5119183;28;20451;-67
2021/05/30 09:12:37;;;;;;;3.10;2.00;;;17.50;1.00;;;;;;5119484;28;20460;-68
2021/05/30 09:15:08;;;;;;;2.37;1.60;;;17.60;1.00;;;;;;5119807;28;20452;-68
2021/05/30 09:17:34;;;;;;;1.93;1.60;;;17.60;1.00;;;;;;5118975;28;20448;-68
2021/05/30 09:20:03;;;;;;;1.90;1.63;;;17.70;1.00;;;;;;5119266;28;20540;-69
2021/05/30 09:22:39;;;;;;;4.73;1.80;;;17.70;1.00;;;;;;5118938;28;20456;-68
2021/05/30 09:25:15;;;;;;;3.57;1.60;;;17.80;1.00;;;;;;5118941;28;20912;-68
2021/05/30 09:27:53;;;;;;;2.10;1.90;;;17.80;1.00;;;;;;5119162;28;20459;-67
2021/05/30 09:30:25;;;;;;;7.47;4.43;;;17.80;1.00;;;;;;5118987;28;20446;-67
2021/05/30 09:33:09;;;;;;;5.40;2.47;;;17.80;1.00;;;;;;5118689;28;20503;-68
2021/05/30 09:35:47;;;;;;;2.97;1.90;;;17.90;1.00;;;;;;5118847;28;20433;-68
2021/05/30 09:38:16;;;;;;;2.80;1.93;;;17.90;1.00;;;;;;5118894;28;20499;-67
2021/05/30 09:40:44;;;;;;;3.10;1.50;;;17.90;1.00;;;;;;5118954;28;20532;-68
2021/05/30 09:43:13;;;;;;;4.27;1.73;;;18.00;1.00;;;;;;5118379;28;20483;-68
2021/05/30 09:45:41;;;;;;;3.33;1.60;;;18.10;1.00;;;;;;5118682;28;20503;-69
2021/05/30 09:48:17;;;;;;;3.43;2.00;;;18.10;1.00;;;;;;5118045;28;20608;-67
2021/05/30 09:51:02;;;;;;;4.87;1.80;;;18.20;1.00;;;;;;5117666;28;20447;-69
2021/05/30 09:53:30;;;;;;;3.30;1.87;;;18.30;1.00;;;;;;5118152;28;20433;-67
2021/05/30 09:55:57;;;;;;;3.60;2.00;;;18.30;1.00;;;;;;5117926;28;20448;-67
2021/05/30 09:58:24;;;;;;;2.03;1.47;;;18.30;1.00;;;;;;5117462;28;20460;-68
2021/05/30 10:01:04;;;;;;;3.80;1.77;;;18.40;1.00;;;;;;5117073;28;20461;-68
2021/05/30 10:03:31;;;;;;;2.50;1.50;;;18.50;1.00;;;;;;5118226;28;20448;-68
2021/05/30 10:06:00;;;;;;;8.17;2.13;;;18.50;1.00;;;;;;5117308;28;20575;-67
2021/05/30 10:08:27;;;;;;;2.37;1.87;;;18.60;1.00;;;;;;5117281;28;20466;-68
2021/05/30 10:10:54;;;;;;;1.73;1.60;;;18.70;1.00;;;;;;5117835;28;20597;-68
2021/05/30 10:13:21;;;;;;;3.43;2.20;;;18.70;1.00;;;;;;5117209;28;20478;-69
2021/05/30 10:15:50;;;;;;;4.60;1.90;;;18.70;1.00;;;;;;5117755;28;20464;-69
2021/05/30 10:18:21;;;;;;;2.07;1.73;;;18.70;1.00;;;;;;5118311;28;20463;-67
2021/05/30 10:20:50;;;;;;;3.87;2.23;;;18.70;1.00;;;;;;5118294;28;20467;-68
2021/05/30 10:23:18;;;;;;;2.53;1.83;;;18.70;1.00;;;;;;5118587;28;20456;-67
2021/05/30 10:25:45;;;;;;;2.50;1.93;;;18.70;1.00;;;;;;5118011;28;20511;-67
2021/05/30 10:28:14;;;;;;;4.43;2.20;;;18.70;1.00;;;;;;5118715;28;20517;-68
2021/05/30 10:30:43;;;;;;;3.20;2.20;;;18.80;1.00;;;;;;5117979;27;20838;-68
2021/05/30 10:33:14;;;;;;;3.70;1.70;;;18.80;1.00;;;;;;5117876;28;20548;-68
2021/05/30 10:35:42;;;;;;;4.03;1.80;;;18.90;1.00;;;;;;5117237;28;20445;-69
2021/05/30 10:38:11;;;;;;;2.93;1.77;;;19.00;1.00;;;;;;5117434;28;20452;-68
2021/05/30 10:40:39;;;;;;;3.40;2.30;;;19.00;1.00;;;;;;5116953;28;20453;-68
2021/05/30 10:43:22;;;;;;;2.10;1.90;;;19.10;1.00;;;;;;5116198;28;20879;-68
2021/05/30 10:46:06;;;;;;;3.30;2.10;;;19.20;1.00;;;;;;5116756;28;20461;-69
2021/05/30 10:48:33;;;;;;;2.53;2.00;;;19.30;1.00;;;;;;5117171;28;20452;-68
2021/05/30 10:51:32;;;;;;;2.30;2.10;;;19.40;1.00;;;;;;5116733;28;20452;-68
2021/05/30 10:54:11;;;;;;;3.77;2.00;;;19.50;1.00;;;;;;5116490;28;20791;-68
2021/05/30 10:56:40;;;;;;;3.67;2.00;;;19.60;1.00;;;;;;5116832;28;20889;-68
2021/05/30 10:59:25;;;;;;;4.10;2.30;;;19.70;1.00;;;;;;5118484;28;20448;-68
2021/05/30 11:01:51;;;;;;;3.10;2.33;;;19.80;1.00;;;;;;5118965;28;20447;-68
2021/05/30 11:04:48;;;;;;;2.83;2.03;;;20.00;1.00;;;;;;5118245;28;20517;-68
2021/05/30 11:07:41;;;;;;;2.77;1.80;;;20.20;1.00;;;;;;5118359;28;20471;-68
2021/05/30 11:10:12;;;;;;;3.80;1.93;;;20.30;1.00;;;;;;5118533;28;20877;-68
2021/05/30 11:12:55;;;;;;;1.97;1.77;;;20.50;1.00;;;;;;5118167;28;20437;-67
2021/05/30 11:15:26;;;;;;;8.10;1.93;;;20.90;1.00;;;;;;5119147;28;20531;-68
2021/05/30 11:17:57;;;;;;;2.30;2.00;;;21.40;1.00;;;;;;5120178;28;20444;-68
2021/05/30 11:20:26;;;;;;;3.63;1.87;;;21.80;1.00;;;;;;5119223;28;20448;-68
2021/05/30 11:22:55;;;;;;;2.63;1.90;;;22.00;1.00;;;;;;5117648;28;20449;-67
2021/05/30 11:25:24;;;;;;;4.77;1.77;;;22.70;1.00;;;;;;5117397;28;20916;-68
2021/05/30 11:27:53;;;;;;;2.80;1.87;;;23.60;1.00;;;;;;5116409;28;20456;-68
2021/05/30 11:30:54;;;;;;;3.10;1.80;;;24.60;1.00;;;;;;5116748;28;20456;-68
2021/05/30 11:33:38;;;;;;;2.97;1.60;;;25.70;1.00;;;;;;5054323;28;20486;-67
2021/05/30 11:36:06;;;;;;;2.37;1.80;;;26.60;1.00;;;;;;5112939;28;20497;-68
2021/05/30 11:38:34;;;;;;;2.20;1.80;;;27.60;1.00;;;;;;5121051;28;20448;-68
2021/05/30 11:41:15;;;;;;;2.07;1.70;;;28.70;1.00;;;;;;5121927;28;20444;-68
2021/05/30 11:43:57;;;;;;;2.23;1.57;;;29.40;1.00;;;;;;5122202;28;20436;-69
2021/05/30 11:46:24;;;;;;;1.80;1.40;;;30.30;1.00;;;;;;5122096;28;20928;-67
2021/05/30 11:49:07;;;;;;;5.30;2.13;;;30.90;1.00;;;;;;5123306;28;20478;-68
2021/05/30 11:51:59;;;;;;;1.93;1.60;;;31.50;1.00;;;;;;5126563;28;20459;-68
2021/05/30 11:54:28;;;;;;;3.50;2.07;;;32.20;1.00;;;;;;5127404;28;20441;-68
2021/05/30 11:56:57;;;;;;;2.67;1.70;;;32.20;1.00;;;;;;5127664;28;20452;-68
2021/05/30 11:59:31;;;;;;;2.50;1.90;;;31.80;1.00;;;;;;5125473;28;20483;-68
2021/05/30 12:01:59;;;;;;;2.07;1.47;;;31.10;1.00;;;;;;5123546;28;20436;-67
2021/05/30 12:04:34;;;;;;;2.73;1.90;;;29.90;1.00;;;;;;5124103;28;20452;-67
2021/05/30 12:07:01;;;;;;;2.03;1.83;;;28.60;1.00;;;;;;5124988;28;20468;-67
2021/05/30 12:09:48;;;;;;;2.60;1.83;;;28.00;1.00;;;;;;5122032;28;20485;-68
2021/05/30 12:12:26;;;;;;;2.47;2.10;;;27.60;1.00;;;;;;5124167;28;20474;-67
2021/05/30 12:14:52;;;;;;;3.30;2.13;;;27.00;1.00;;;;;;5121990;28;20760;-67
2021/05/30 12:17:20;;;;;;;2.17;1.83;;;26.40;1.00;;;;;;5120950;28;20552;-68
2021/05/30 12:19:46;;;;;;;3.70;1.80;;;25.70;1.00;;;;;;5122117;28;20444;-67
2021/05/30 12:22:20;;;;;;;3.47;2.40;;;25.10;1.00;;;;;;5120329;28;20456;-67
2021/05/30 12:24:47;;;;;;;3.07;2.00;;;24.50;1.00;;;;;;5123272;28;20437;-67
2021/05/30 12:27:14;;;;;;;3.53;2.20;;;23.90;1.00;;;;;;5122390;28;20480;-67
2021/05/30 12:29:45;;;;;;;3.40;2.00;;;23.90;1.00;;;;;;5122783;28;20452;-67
2021/05/30 12:32:14;;;;;;;1.67;1.57;;;24.60;1.00;;;;;;5120929;28;20545;-67
2021/05/30 12:34:42;;;;;;;1.90;1.60;;;25.20;1.00;;;;;;5120123;28;20440;-67
2021/05/30 12:37:09;;;;;;;5.60;1.90;;;25.80;1.00;;;;;;5119602;28;20456;-67
2021/05/30 12:39:38;;;;;;;2.47;1.80;;;26.60;1.00;;;;;;5119267;28;20468;-67
2021/05/30 12:42:07;;;;;;;3.10;2.10;;;27.10;1.00;;;;;;5120726;28;20463;-67
2021/05/30 12:44:38;;;;;;;2.87;2.17;;;27.40;1.00;;;;;;5120143;28;20453;-68
2021/05/30 12:47:08;;;;;;;3.07;2.30;;;27.40;1.00;;;;;;5120242;28;20811;-67
2021/05/30 12:49:34;;;;;;;3.10;1.90;;;27.30;1.00;;;;;;5122112;28;20456;-67
2021/05/30 12:52:04;;;;;;;4.80;1.70;;;27.50;1.00;;;;;;5120226;28;20490;-68
2021/05/30 12:54:32;;;;;;;1.63;1.40;;;27.50;1.00;;;;;;5120255;28;20452;-67
2021/05/30 12:56:59;;;;;;;1.60;1.50;;;27.60;1.00;;;;;;5120847;28;20479;-67
2021/05/30 12:59:27;;;;;;;2.13;1.93;;;28.30;1.00;;;;;;5119457;28;20444;-67
2021/05/30 13:01:54;;;;;;;2.50;1.60;;;28.80;1.00;;;;;;5118186;28;20456;-67
2021/05/30 13:04:32;;;;;;;1.70;1.60;;;29.70;1.00;;;;;;5119177;28;20448;-67